createdAt,value
2018-08-28T00:00:30.717Z,12.87
2018-08-28T00:02:59.257Z,11.63
2018-08-28T00:05:28.047Z,9.97
2018-08-28T00:07:56.759Z,13.33
2018-08-28T00:10:25.290Z,12.57
2018-08-28T00:12:53.914Z,9.60
2018-08-28T00:15:23.050Z,10.67
2018-08-28T00:17:52.076Z,13.80
2018-08-28T00:20:20.650Z,10.37
2018-08-28T00:22:49.438Z,12.30
2018-08-28T00:25:18.037Z,11.50
2018-08-28T00:27:46.605Z,12.43
2018-08-28T00:30:15.306Z,11.30
2018-08-28T00:32:43.819Z,13.57
2018-08-28T00:35:12.529Z,8.77
2018-08-28T00:37:41.409Z,9.23
2018-08-28T00:40:09.966Z,10.47
2018-08-28T00:42:38.721Z,11.47
2018-08-28T00:45:07.678Z,9.77
2018-08-28T00:47:36.366Z,14.43
2018-08-28T00:50:04.871Z,10.40
2018-08-28T00:52:33.580Z,13.00
2018-08-28T00:55:02.413Z,14.70
2018-08-28T00:57:31.060Z,16.63
2018-08-28T00:59:59.884Z,15.07
2018-08-28T01:02:28.598Z,13.90
2018-08-28T01:04:57.477Z,12.47
2018-08-28T01:07:26.037Z,10.53
2018-08-28T01:09:54.687Z,12.20
2018-08-28T01:12:23.197Z,10.83
2018-08-28T01:14:51.757Z,12.60
2018-08-28T01:17:20.301Z,12.63
2018-08-28T01:19:48.832Z,15.33
2018-08-28T01:22:17.458Z,15.50
2018-08-28T01:24:46.367Z,12.33
2018-08-28T01:27:15.195Z,11.43
2018-08-28T01:29:43.744Z,14.30
2018-08-28T01:32:12.511Z,10.53
2018-08-28T01:34:41.038Z,15.00
2018-08-28T01:37:09.721Z,13.07
2018-08-28T01:39:38.616Z,12.13
2018-08-28T01:42:07.270Z,13.13
2018-08-28T01:44:36.000Z,11.57
2018-08-28T01:47:04.993Z,11.93
2018-08-28T01:49:33.554Z,13.17
2018-08-28T01:52:02.192Z,9.83
2018-08-28T01:54:30.870Z,9.17
2018-08-28T01:56:59.619Z,12.63
2018-08-28T01:59:28.454Z,11.57
2018-08-28T02:01:57.139Z,11.90
2018-08-28T02:04:30.703Z,8.60
2018-08-28T02:06:59.213Z,10.23
2018-08-28T02:09:27.838Z,10.33
2018-08-28T02:11:56.642Z,11.67
2018-08-28T02:14:25.183Z,10.07
2018-08-28T02:16:53.757Z,12.33
2018-08-28T02:19:22.469Z,12.10
2018-08-28T02:21:51.287Z,11.93
2018-08-28T02:24:19.871Z,9.50
2018-08-28T02:26:48.497Z,8.70
2018-08-28T02:29:17.222Z,12.07
2018-08-28T02:31:45.931Z,11.97
2018-08-28T02:34:14.662Z,14.20
2018-08-28T02:36:43.275Z,10.97
2018-08-28T02:39:12.479Z,10.20
2018-08-28T02:41:41.982Z,13.20
2018-08-28T02:44:10.814Z,10.27
2018-08-28T02:46:39.595Z,9.83
2018-08-28T02:49:08.116Z,9.90
2018-08-28T02:51:37.331Z,9.87
2018-08-28T02:54:05.972Z,11.07
2018-08-28T02:56:34.625Z,10.77
2018-08-28T02:59:03.306Z,10.87
2018-08-28T03:01:31.954Z,11.23
2018-08-28T03:04:00.964Z,9.03
2018-08-28T03:06:29.745Z,13.37
2018-08-28T03:08:58.365Z,11.73
2018-08-28T03:11:27.154Z,11.80
2018-08-28T03:13:55.810Z,10.90
2018-08-28T03:16:24.721Z,12.30
2018-08-28T03:18:53.270Z,10.97
2018-08-28T03:21:21.967Z,12.23
2018-08-28T03:23:50.863Z,8.73
2018-08-28T03:26:19.603Z,11.83
2018-08-28T03:28:48.190Z,8.73
2018-08-28T03:31:16.907Z,12.67
2018-08-28T03:33:45.723Z,12.23
2018-08-28T03:36:14.262Z,10.63
2018-08-28T03:38:42.842Z,9.10
2018-08-28T03:41:11.527Z,10.80
2018-08-28T03:43:40.190Z,10.73
2018-08-28T03:46:08.738Z,11.83
2018-08-28T03:48:37.300Z,10.03
2018-08-28T03:51:06.880Z,9.67
2018-08-28T03:53:35.674Z,12.97
2018-08-28T03:56:04.774Z,10.23
2018-08-28T03:58:33.347Z,9.07
2018-08-28T04:01:02.197Z,10.93
2018-08-28T04:03:30.900Z,11.23
2018-08-28T04:05:59.626Z,9.03
2018-08-28T04:08:28.348Z,10.37
2018-08-28T04:10:56.849Z,9.60
2018-08-28T04:13:25.427Z,10.60
2018-08-28T04:15:54.002Z,12.70
2018-08-28T04:18:22.877Z,11.50
2018-08-28T04:20:51.474Z,12.07
2018-08-28T04:23:19.999Z,12.47
2018-08-28T04:25:48.573Z,13.47
2018-08-28T04:28:17.766Z,13.00
2018-08-28T04:30:46.358Z,11.80
2018-08-28T04:33:15.301Z,13.20
2018-08-28T04:35:44.271Z,16.43
2018-08-28T04:38:13.027Z,18.07
2018-08-28T04:40:41.714Z,14.23
2018-08-28T04:43:10.266Z,10.93
2018-08-28T04:45:38.890Z,11.27
2018-08-28T04:48:07.886Z,9.90
2018-08-28T04:50:36.548Z,11.83
2018-08-28T04:53:05.281Z,11.37
2018-08-28T04:55:33.981Z,13.40
2018-08-28T04:58:02.550Z,10.37
2018-08-28T05:00:31.200Z,11.13
2018-08-28T05:02:59.759Z,12.17
2018-08-28T05:05:28.453Z,13.90
2018-08-28T05:07:57.221Z,11.40
2018-08-28T05:10:25.747Z,10.87
2018-08-28T05:12:54.245Z,10.77
2018-08-28T05:15:22.804Z,9.47
2018-08-28T05:17:51.459Z,14.30
2018-08-28T05:20:20.016Z,11.10
2018-08-28T05:22:48.558Z,14.23
2018-08-28T05:25:17.336Z,12.33
2018-08-28T05:27:46.138Z,14.60
2018-08-28T05:30:14.712Z,12.83
2018-08-28T05:32:43.246Z,12.37
2018-08-28T05:35:11.778Z,11.17
2018-08-28T05:37:40.562Z,17.03
2018-08-28T05:40:09.276Z,14.80
2018-08-28T05:42:37.866Z,11.13
2018-08-28T05:45:06.637Z,12.30
2018-08-28T05:47:35.286Z,14.47
2018-08-28T05:50:03.994Z,13.17
2018-08-28T05:52:32.773Z,16.43
2018-08-28T05:55:01.670Z,15.03
2018-08-28T05:57:30.179Z,11.57
2018-08-28T05:59:58.743Z,11.87
2018-08-28T06:02:27.517Z,13.27
2018-08-28T06:04:56.676Z,13.87
2018-08-28T06:07:25.562Z,13.00
2018-08-28T06:09:54.264Z,15.13
2018-08-28T06:12:23.016Z,10.60
2018-08-28T06:14:51.936Z,11.07
2018-08-28T06:17:20.365Z,14.33
2018-08-28T06:19:48.982Z,13.13
2018-08-28T06:22:17.570Z,9.03
2018-08-28T06:24:46.177Z,13.80
2018-08-28T06:27:14.936Z,14.33
2018-08-28T06:29:43.502Z,13.90
2018-08-28T06:32:12.180Z,16.53
2018-08-28T06:34:40.714Z,12.07
2018-08-28T06:37:09.826Z,12.97
2018-08-28T06:39:38.551Z,8.50
2018-08-28T06:42:07.261Z,14.07
2018-08-28T06:44:36.006Z,12.20
2018-08-28T06:47:04.672Z,13.10
2018-08-28T06:49:33.485Z,15.83
2018-08-28T06:52:02.197Z,10.73
2018-08-28T06:54:30.957Z,12.67
2018-08-28T06:56:59.707Z,12.30
2018-08-28T06:59:28.520Z,8.77
2018-08-28T07:01:57.213Z,13.63
2018-08-28T07:04:25.808Z,13.57
2018-08-28T07:06:54.406Z,14.90
2018-08-28T07:09:22.954Z,15.17
2018-08-28T07:11:51.476Z,11.23
2018-08-28T07:14:20.058Z,11.57
2018-08-28T07:16:48.642Z,9.77
2018-08-28T07:19:17.715Z,11.57
2018-08-28T07:24:39.364Z,13.60
2018-08-28T07:27:08.248Z,13.07
2018-08-28T07:29:37.167Z,12.37
2018-08-28T07:32:06.034Z,11.60
2018-08-28T07:34:34.548Z,12.33
2018-08-28T07:37:03.220Z,8.67
2018-08-28T07:39:31.737Z,10.43
2018-08-28T07:42:00.303Z,12.47
2018-08-28T07:44:28.839Z,11.10
2018-08-28T07:46:57.401Z,12.53
2018-08-28T07:49:26.581Z,10.07
2018-08-28T07:51:55.323Z,16.83
2018-08-28T07:54:23.828Z,13.33
2018-08-28T07:56:52.797Z,12.97
2018-08-28T07:59:21.431Z,17.33
2018-08-28T08:01:50.234Z,14.17
2018-08-28T08:04:18.941Z,15.30
2018-08-28T08:06:47.728Z,15.47
2018-08-28T08:09:16.440Z,15.93
2018-08-28T08:11:45.068Z,11.33
2018-08-28T08:14:14.291Z,13.80
2018-08-28T08:16:43.003Z,12.63
2018-08-28T08:19:11.511Z,14.73
2018-08-28T08:21:40.008Z,15.90
2018-08-28T08:24:09.135Z,14.10
2018-08-28T08:26:38.016Z,13.27
2018-08-28T08:29:06.819Z,12.80
2018-08-28T08:31:35.784Z,16.97
2018-08-28T08:34:04.628Z,15.43
2018-08-28T08:36:33.102Z,14.87
2018-08-28T08:39:01.785Z,12.37
2018-08-28T08:41:30.289Z,15.83
2018-08-28T08:43:59.102Z,13.07
2018-08-28T08:46:27.797Z,12.63
2018-08-28T08:48:56.401Z,13.40
2018-08-28T08:51:25.209Z,12.30
2018-08-28T08:53:53.951Z,8.13
2018-08-28T08:56:22.644Z,8.03
2018-08-28T08:58:51.547Z,10.17
2018-08-28T09:01:20.282Z,6.70
2018-08-28T09:03:48.933Z,9.13
2018-08-28T09:06:17.475Z,7.17
2018-08-28T09:08:46.043Z,8.17
2018-08-28T09:11:14.873Z,11.83
2018-08-28T09:13:43.572Z,7.90
2018-08-28T09:16:12.200Z,6.43
2018-08-28T09:18:40.717Z,8.30
2018-08-28T09:21:09.343Z,6.67
2018-08-28T09:23:37.887Z,9.87
2018-08-28T09:26:06.964Z,6.27
2018-08-28T09:28:35.554Z,8.13
2018-08-28T09:31:04.101Z,7.97
2018-08-28T09:33:32.688Z,6.77
2018-08-28T09:36:01.203Z,7.42
2018-08-28T09:38:30.264Z,7.75
2018-08-28T09:40:58.752Z,8.17
2018-08-28T09:43:27.511Z,7.03
2018-08-28T09:45:56.422Z,5.65
2018-08-28T09:48:25.134Z,6.30
2018-08-28T09:50:53.750Z,5.42
2018-08-28T09:53:22.288Z,7.85
2018-08-28T09:55:50.839Z,5.47
2018-08-28T09:58:19.895Z,7.03
2018-08-28T10:00:53.663Z,7.45
2018-08-28T10:03:22.231Z,6.10
2018-08-28T10:05:51.368Z,8.40
2018-08-28T10:08:20.080Z,5.47
2018-08-28T10:10:48.781Z,5.80
2018-08-28T10:13:17.323Z,5.28
2018-08-28T10:15:46.343Z,4.95
2018-08-28T10:18:14.940Z,6.22
2018-08-28T10:20:43.453Z,4.80
2018-08-28T10:23:12.327Z,6.20
2018-08-28T10:25:40.877Z,6.67
2018-08-28T10:28:09.760Z,5.05
2018-08-28T10:30:38.346Z,6.47
2018-08-28T10:33:07.236Z,4.85
2018-08-28T10:35:36.144Z,5.47
2018-08-28T10:38:05.472Z,6.92
2018-08-28T10:40:34.026Z,5.92
2018-08-28T10:43:02.769Z,5.35
2018-08-28T10:45:31.448Z,8.30
2018-08-28T10:48:00.007Z,5.83
2018-08-28T10:50:28.859Z,5.75
2018-08-28T10:52:58.375Z,4.83
2018-08-28T10:55:27.270Z,5.62
2018-08-28T10:57:55.953Z,5.25
2018-08-28T11:00:24.697Z,4.80
2018-08-28T11:02:53.663Z,5.42
2018-08-28T11:05:22.338Z,7.15
2018-08-28T11:07:50.859Z,4.85
2018-08-28T11:10:19.777Z,5.72
2018-08-28T11:12:48.520Z,5.03
2018-08-28T11:15:17.407Z,5.08
2018-08-28T11:17:46.010Z,3.75
2018-08-28T11:20:14.624Z,5.65
2018-08-28T11:22:43.582Z,6.50
2018-08-28T11:25:12.284Z,4.40
2018-08-28T11:27:40.911Z,5.75
2018-08-28T11:30:09.552Z,5.75
2018-08-28T11:32:38.192Z,5.75
2018-08-28T11:35:07.033Z,6.20
2018-08-28T11:37:35.552Z,5.50
2018-08-28T11:40:04.139Z,7.33
2018-08-28T11:42:32.715Z,5.92
2018-08-28T11:45:01.698Z,6.92
2018-08-28T11:47:30.264Z,4.37
2018-08-28T11:49:59.236Z,4.75
2018-08-28T11:52:28.090Z,5.03
2018-08-28T11:54:56.621Z,5.75
2018-08-28T11:57:25.320Z,5.70
2018-08-28T11:59:54.000Z,5.25
2018-08-28T12:02:22.577Z,4.15
2018-08-28T12:04:51.374Z,4.67
2018-08-28T12:07:20.152Z,6.95
2018-08-28T12:09:48.627Z,4.08
2018-08-28T12:12:17.464Z,5.00
2018-08-28T12:14:46.324Z,5.10
2018-08-28T12:17:14.949Z,7.42
2018-08-28T12:19:43.590Z,4.53
2018-08-28T12:22:12.755Z,4.72
2018-08-28T12:24:41.380Z,5.42
2018-08-28T12:27:09.949Z,4.40
2018-08-28T12:29:38.655Z,4.87
2018-08-28T12:32:07.272Z,4.40
2018-08-28T12:34:36.070Z,4.92
2018-08-28T12:37:04.758Z,6.67
2018-08-28T12:39:33.213Z,4.80
2018-08-28T12:42:01.861Z,5.60
2018-08-28T12:44:30.746Z,4.70
2018-08-28T12:46:59.503Z,6.53
2018-08-28T12:49:28.131Z,5.47
2018-08-28T12:51:56.876Z,4.65
2018-08-28T12:54:25.538Z,5.58
2018-08-28T12:56:54.312Z,5.15
2018-08-28T12:59:22.888Z,4.37
2018-08-28T13:01:51.750Z,4.67
2018-08-28T13:04:20.440Z,3.80
2018-08-28T13:06:49.045Z,4.70
2018-08-28T13:09:17.603Z,5.45
2018-08-28T13:11:46.310Z,4.95
2018-08-28T13:14:14.889Z,5.15
2018-08-28T13:16:43.806Z,5.05
2018-08-28T13:19:12.775Z,5.55
2018-08-28T13:21:41.404Z,5.12
2018-08-28T13:24:10.931Z,5.35
2018-08-28T13:26:39.500Z,5.20
2018-08-28T13:29:08.456Z,5.05
2018-08-28T13:31:37.144Z,7.05
2018-08-28T13:34:05.987Z,4.65
2018-08-28T13:36:35.029Z,8.33
2018-08-28T13:39:04.301Z,6.08
2018-08-28T13:41:33.082Z,3.95
2018-08-28T13:44:01.837Z,3.83
2018-08-28T13:46:30.552Z,3.72
2018-08-28T13:48:59.375Z,4.65
2018-08-28T13:51:28.205Z,9.63
2018-08-28T13:53:57.117Z,6.50
2018-08-28T13:56:25.844Z,6.35
2018-08-28T13:58:54.782Z,5.53
2018-08-28T14:01:23.758Z,4.05
2018-08-28T14:03:52.262Z,5.10
2018-08-28T14:06:20.786Z,4.92
2018-08-28T14:08:49.337Z,5.30
2018-08-28T14:11:17.997Z,5.10
2018-08-28T14:13:47.055Z,4.50
2018-08-28T14:16:15.584Z,4.60
2018-08-28T14:18:44.167Z,6.33
2018-08-28T14:21:12.769Z,7.05
2018-08-28T14:23:41.654Z,8.05
2018-08-28T14:26:10.715Z,5.92
2018-08-28T14:28:39.506Z,6.80
2018-08-28T14:31:08.261Z,4.85
2018-08-28T14:33:37.144Z,7.60
2018-08-28T14:36:06.031Z,6.05
2018-08-28T14:38:34.716Z,4.60
2018-08-28T14:41:03.286Z,6.50
2018-08-28T14:43:31.882Z,5.00
2018-08-28T14:46:00.369Z,5.92
2018-08-28T14:48:28.969Z,5.50
2018-08-28T14:50:57.938Z,5.08
2018-08-28T14:53:26.769Z,6.05
2018-08-28T14:55:55.582Z,6.00
2018-08-28T14:58:24.307Z,6.40
2018-08-28T15:00:53.076Z,4.85
2018-08-28T15:03:21.850Z,7.22
2018-08-28T15:05:50.699Z,4.28
2018-08-28T15:08:19.358Z,5.50
2018-08-28T15:10:48.281Z,4.58
2018-08-28T15:13:17.041Z,6.90
2018-08-28T15:15:45.709Z,7.70
2018-08-28T15:18:14.647Z,5.22
2018-08-28T15:20:43.159Z,4.17
2018-08-28T15:23:12.078Z,4.50
2018-08-28T15:25:41.215Z,3.90
2018-08-28T15:28:10.267Z,5.22
2018-08-28T15:30:38.814Z,5.42
2018-08-28T15:33:07.692Z,5.20
2018-08-28T15:35:36.517Z,5.03
2018-08-28T15:38:05.094Z,4.85
2018-08-28T15:40:33.639Z,8.85
2018-08-28T15:43:02.331Z,9.35
2018-08-28T15:45:30.814Z,4.20
2018-08-28T15:47:59.411Z,6.95
2018-08-28T15:50:27.940Z,6.22
2018-08-28T15:52:56.852Z,7.87
2018-08-28T15:55:25.821Z,5.47
2018-08-28T15:57:54.644Z,5.30
2018-08-28T16:00:23.182Z,6.67
2018-08-28T16:02:51.900Z,4.60
2018-08-28T16:05:20.994Z,5.53
2018-08-28T16:07:49.673Z,8.48
2018-08-28T16:10:18.850Z,7.33
2018-08-28T16:12:47.490Z,7.12
2018-08-28T16:15:16.505Z,6.85
2018-08-28T16:17:45.484Z,8.08
2018-08-28T16:20:14.704Z,5.80
2018-08-28T16:22:47.364Z,7.37
2018-08-28T16:25:16.383Z,6.15
2018-08-28T16:27:44.984Z,5.20
2018-08-28T16:30:17.716Z,5.15
2018-08-28T16:32:46.303Z,6.10
2018-08-28T16:35:15.021Z,6.25
2018-08-28T16:37:43.868Z,5.17
2018-08-28T16:40:12.576Z,5.12
2018-08-28T16:42:41.283Z,6.50
2018-08-28T16:45:09.991Z,6.50
2018-08-28T16:47:38.775Z,5.60
2018-08-28T16:50:07.348Z,4.97
2018-08-28T16:52:36.538Z,6.28
2018-08-28T16:55:05.801Z,4.40
2018-08-28T16:57:35.021Z,5.15
2018-08-28T17:00:04.218Z,4.62
2018-08-28T17:02:33.138Z,5.60
2018-08-28T17:05:01.991Z,5.85
2018-08-28T17:07:30.595Z,4.12
2018-08-28T17:09:59.175Z,7.08
2018-08-28T17:12:28.183Z,5.65
2018-08-28T17:14:56.962Z,3.75
2018-08-28T17:17:25.857Z,6.78
2018-08-28T17:19:54.704Z,5.40
2018-08-28T17:22:23.373Z,5.62
2018-08-28T17:24:52.414Z,6.05
2018-08-28T17:27:21.061Z,5.67
2018-08-28T17:29:49.983Z,7.42
2018-08-28T17:32:18.579Z,7.15
2018-08-28T17:34:47.391Z,4.53
2018-08-28T17:37:16.298Z,5.60
2018-08-28T17:39:44.973Z,8.23
2018-08-28T17:42:14.150Z,5.45
2018-08-28T17:44:42.987Z,4.92
2018-08-28T17:47:11.879Z,4.70
2018-08-28T17:49:40.860Z,4.97
2018-08-28T17:52:09.701Z,4.70
2018-08-28T17:54:38.468Z,5.17
2018-08-28T17:57:07.589Z,4.83
2018-08-28T17:59:36.388Z,7.80
2018-08-28T18:02:05.589Z,6.10
2018-08-28T18:04:34.525Z,5.43
2018-08-28T18:07:03.376Z,6.33
2018-08-28T18:09:31.992Z,5.17
2018-08-28T18:12:01.182Z,5.43
2018-08-28T18:14:30.102Z,5.67
2018-08-28T18:16:59.032Z,6.17
2018-08-28T18:19:28.014Z,4.63
2018-08-28T18:21:56.922Z,6.90
2018-08-28T18:24:25.539Z,5.83
2018-08-28T18:26:54.599Z,6.80
2018-08-28T18:29:23.240Z,5.57
2018-08-28T18:31:52.143Z,6.17
2018-08-28T18:34:20.860Z,8.10
2018-08-28T18:36:50.194Z,5.37
2018-08-28T18:39:19.370Z,6.83
2018-08-28T18:41:48.247Z,7.93
2018-08-28T18:44:17.337Z,5.70
2018-08-28T18:46:46.152Z,5.87
2018-08-28T18:49:15.010Z,5.87
2018-08-28T18:51:43.910Z,6.13
2018-08-28T18:54:12.691Z,4.70
2018-08-28T18:56:41.564Z,6.03
2018-08-28T18:59:10.297Z,6.67
2018-08-28T19:01:39.450Z,5.40
2018-08-28T19:04:12.005Z,7.13
2018-08-28T19:06:40.925Z,9.00
2018-08-28T19:09:09.821Z,7.00
2018-08-28T19:11:38.784Z,5.80
2018-08-28T19:14:07.643Z,8.43
2018-08-28T19:16:36.402Z,6.83
2018-08-28T19:19:05.193Z,7.67
2018-08-28T19:21:34.231Z,6.33
2018-08-28T19:24:03.319Z,7.73
2018-08-28T19:26:32.444Z,6.97
2018-08-28T19:29:01.577Z,6.20
2018-08-28T19:31:30.939Z,7.23
2018-08-28T19:33:59.592Z,7.17
2018-08-28T19:36:28.553Z,7.80
2018-08-28T19:38:57.485Z,6.23
2018-08-28T19:41:26.225Z,8.23
2018-08-28T19:43:54.796Z,8.07
2018-08-28T19:46:23.531Z,6.93
2018-08-28T19:48:52.330Z,7.93
2018-08-28T19:51:21.362Z,5.83
2018-08-28T19:53:50.149Z,7.00
2018-08-28T19:56:18.817Z,6.80
2018-08-28T19:58:47.639Z,7.73
2018-08-28T20:01:16.189Z,5.77
2018-08-28T20:03:44.926Z,6.40
2018-08-28T20:06:13.728Z,6.90
2018-08-28T20:08:42.695Z,7.63
2018-08-28T20:11:11.354Z,6.77
2018-08-28T20:13:40.096Z,7.93
2018-08-28T20:16:08.807Z,7.23
2018-08-28T20:18:37.628Z,6.40
2018-08-28T20:21:06.723Z,5.70
2018-08-28T20:23:35.889Z,7.33
2018-08-28T20:26:04.528Z,7.77
2018-08-28T20:28:33.518Z,8.60
2018-08-28T20:31:02.472Z,7.03
2018-08-28T20:33:31.357Z,8.07
2018-08-28T20:36:00.236Z,7.33
2018-08-28T20:38:28.767Z,7.73
2018-08-28T20:40:57.537Z,7.27
2018-08-28T20:43:26.511Z,6.23
2018-08-28T20:45:55.264Z,9.40
2018-08-28T20:48:24.044Z,8.00
2018-08-28T20:50:52.732Z,7.13
2018-08-28T20:53:21.580Z,10.27
2018-08-28T20:55:50.350Z,6.27
2018-08-28T20:58:19.133Z,10.10
2018-08-28T21:00:48.021Z,6.73
2018-08-28T21:03:16.638Z,6.90
2018-08-28T21:05:45.555Z,7.80
2018-08-28T21:08:14.186Z,7.00
2018-08-28T21:10:42.927Z,7.33
2018-08-28T21:13:11.653Z,7.37
2018-08-28T21:15:40.228Z,6.20
2018-08-28T21:18:09.195Z,8.93
2018-08-28T21:20:38.048Z,8.80
2018-08-28T21:23:06.840Z,7.37
2018-08-28T21:25:35.250Z,9.67
2018-08-28T21:28:03.982Z,6.50
2018-08-28T21:30:32.565Z,8.03
2018-08-28T21:33:01.089Z,6.90
2018-08-28T21:35:29.678Z,6.33
2018-08-28T21:37:58.259Z,6.67
2018-08-28T21:40:26.919Z,7.37
2018-08-28T21:42:55.467Z,11.70
2018-08-28T21:45:23.964Z,7.60
2018-08-28T21:47:52.523Z,11.77
2018-08-28T21:50:21.109Z,7.17
2018-08-28T21:52:49.955Z,6.73
2018-08-28T21:55:18.563Z,7.40
2018-08-28T21:57:47.059Z,8.63
2018-08-28T22:00:15.979Z,8.03
2018-08-28T22:02:44.712Z,7.83
2018-08-28T22:05:13.238Z,8.70
2018-08-28T22:07:42.864Z,8.80
2018-08-28T22:10:11.854Z,5.93
2018-08-28T22:12:40.634Z,9.43
2018-08-28T22:15:13.509Z,7.33
2018-08-28T22:17:42.535Z,6.97
2018-08-28T22:20:11.396Z,10.00
2018-08-28T22:22:40.065Z,8.40
2018-08-28T22:25:08.823Z,7.87
2018-08-28T22:27:37.530Z,7.13
2018-08-28T22:30:07.059Z,10.00
2018-08-28T22:32:35.565Z,6.43
2018-08-28T22:35:04.162Z,9.70
2018-08-28T22:37:33.208Z,7.93
2018-08-28T22:40:02.074Z,6.57
2018-08-28T22:42:30.852Z,7.67
2018-08-28T22:44:59.448Z,8.07
2018-08-28T22:47:27.982Z,8.20
2018-08-28T22:49:56.506Z,8.43
2018-08-28T22:52:25.409Z,9.93
2018-08-28T22:54:54.152Z,10.20
2018-08-28T22:57:22.633Z,9.97
2018-08-28T22:59:51.284Z,6.10
2018-08-28T23:02:20.303Z,6.63
2018-08-28T23:04:49.000Z,8.47
2018-08-28T23:07:17.771Z,8.80
2018-08-28T23:09:46.399Z,7.10
2018-08-28T23:12:14.970Z,8.30
2018-08-28T23:14:43.527Z,7.90
2018-08-28T23:17:12.339Z,8.63
2018-08-28T23:19:40.899Z,6.87
2018-08-28T23:22:09.683Z,7.80
2018-08-28T23:24:38.182Z,8.57
2018-08-28T23:27:06.896Z,5.83
2018-08-28T23:29:35.683Z,6.37
2018-08-28T23:32:04.292Z,11.03
2018-08-28T23:34:33.313Z,9.33
2018-08-28T23:37:01.941Z,9.67
2018-08-28T23:39:30.493Z,7.33
2018-08-28T23:41:58.980Z,7.53
2018-08-28T23:44:27.677Z,8.80
2018-08-28T23:46:56.170Z,6.27
2018-08-28T23:49:24.660Z,8.20
2018-08-28T23:51:53.167Z,8.07
2018-08-28T23:54:21.898Z,8.67
2018-08-28T23:56:50.554Z,8.03
2018-08-28T23:59:19.047Z,11.77
